KCMH/CMH METAR and TAF weather

Enter ICAO airport designator
Station Type Date Time Source
KCMH METAR 2018/04/26 14:51 UTC NOAA

KCMH 261451Z 10007KT 10SM SCT025 BKN200 12/05 A2995 RMK AO2 SLP143 T01170050 53009


Station Type Date Time Source
KCMH Decoded METAR 2018/04/26 14:51 UTC NOAA

PORT COLUMBUS INTERNATIONAL AIRPORT, OH, United States (KCMH) 40-00N 82-53W 247M
Apr 26, 2018 - 10:51 AM EDT / 2018.04.26 1451 UTC
Wind: from the E (100 degrees) at 8 MPH (7 KT):0
Visibility: 10 mile(s):0
Sky conditions: mostly cloudy
Temperature: 53.1 F (11.7 C)
Dew Point: 41.0 F (5.0 C)
Relative Humidity: 63%
Pressure (altimeter): 29.95 in. Hg (1014 hPa)
Pressure tendency: 0.03 inches (0.9 hPa) higher than three hours ago
ob: KCMH 261451Z 10007KT 10SM SCT025 BKN200 12/05 A2995 RMK AO2 SLP143 T01170050 53009
cycle: 15

Station Type Date Time Source
KCMH TAF 2018/04/26 15:58 UTC NOAA

TAF
AMD KCMH 261457Z 2615/2712 10007KT P6SM SCT025 BKN200
FM270000 06003KT P6SM SCT050 BKN150


Example: see airport list